Flight Track Log - Related Links

Times and Time Zones

All times are in EDT time to prevent confusion due to time zone crossing. See the JBU33 flight status page for this flight to view local times or setup timezone preferences in your user account.


Time Position Orientation Groundspeed Altitude Reporting Facility
EDT Latitude Longitude Course Direction KTS MPH feet Rate Location/Type
Wed 01:47:55 PM 44.2400 -73.2108 196° South 295 339 9,800  Level Boston Center
Wed 01:48:55 PM 44.1522 -73.2472 197° South 309 356 11,800 2,950 Climbing Boston Center
Wed 01:49:55 PM 44.0686 -73.2808 196° South 323 372 15,700 2,600 Climbing Boston Center
Wed 01:50:00 PM 43.9113 -73.3522 196° South  Level FlightAware Approximate
Wed 01:50:55 PM 43.9831 -73.3144 196° South 339 390 17,000  Level Boston Center
Wed 01:51:00 PM 43.8322 -73.3839 196° South  Level FlightAware Approximate
Wed 01:51:55 PM 43.8847 -73.3561 197° South 367 422 19,300  Level Boston Center
Wed 01:52:00 PM 43.7531 -73.4156 196° South  Level FlightAware Approximate
Wed 01:52:55 PM 43.7928 -73.3950 197° South 383 441 21,200  Level Boston Center
Wed 01:53:00 PM 43.6741 -73.4472 196° South  Level FlightAware Approximate
Wed 01:53:55 PM 43.6631 -73.4417 195° South 396 456 23,800  Level Boston Center
Wed 01:54:55 PM 43.5544 -73.4828 195° South 401 461 25,500 1,750 Climbing Boston Center
Wed 01:55:55 PM 43.4456 -73.5297 197° South 406 467 27,300 1,250 Climbing Boston Center
Wed 01:56:55 PM 43.3347 -73.5733 196° South 412 474 28,000 350 Climbing Boston Center
Wed 01:57:55 PM 43.2364 -73.6114 196° South 398 458 28,000  Level Boston Center
Wed 01:58:55 PM 43.1381 -73.6464 195° South 380 437 28,000  Level Boston Center
Wed 01:59:55 PM 43.0522 -73.6844 198° South 374 430 28,000  Level Boston Center
Wed 02:00:55 PM 42.9539 -73.7222 196° South 368 423 28,000  Level Boston Center
Wed 02:01:55 PM 42.8575 -73.7600 196° South 368 423 28,000  Level Boston Center
Wed 02:02:55 PM 42.7569 -73.8003 196° South 363 418 28,000  Level Boston Center
Wed 02:03:55 PM 42.6547 -73.8092 184° South 363 418 28,000  Level Boston Center
Wed 02:04:55 PM 42.5442 -73.8097 180° South 370 426 28,000  Level Boston Center
Wed 02:05:55 PM 42.4422 -73.8131 181° South 370 426 28,000  Level Boston Center
Wed 02:06:55 PM 42.3358 -73.8164 181° South 370 426 28,000  Level Boston Center
Wed 02:07:55 PM 42.2525 -73.8172 180° South 370 426 28,000  Level Boston Center
Wed 02:08:55 PM 42.1169 -73.8228 182° South 390 449 28,000  Level Boston Center
Wed 02:09:55 PM 42.0058 -73.8622 195° South 408 470 28,000 -68 Level Boston Center
Wed 02:11:52 PM 41.7961 -73.9264 193° South 419 482 27,800 -780 Descending New York Center
Wed 02:12:52 PM 41.6806 -73.9653 194° South 424 488 25,700 -2,182 Descending New York Center
Wed 02:13:53 PM 41.5775 -74.0019 195° South 410 472 23,400 -2,164 Descending New York Center
Wed 02:14:54 PM 41.4725 -74.0356 193° South 394 453 21,300 -1,729 Descending New York Center
Wed 02:15:51 PM 41.3736 -74.0775 198° South 389 448 20,000 -655 Descending New York Center
Wed 02:16:53 PM 41.2903 -74.1508 213° Southwest 376 433 20,000  Level New York Center
Wed 02:17:52 PM 41.1953 -74.1983 201° Southwest 371 427 20,000  Level New York Center
Wed 02:18:53 PM 41.0875 -74.1736 170° South 367 422 20,000 -500 Level New York Center
Wed 02:19:28 PM 41.0167 -74.1500 166° South 385 443 19,200 -638 Descending New York TRACON
Wed 02:20:27 PM 40.9167 -74.1167 166° South 355 409 19,000 -105 Descending New York TRACON
Wed 02:21:22 PM 40.8333 -74.0667 156° South 337 388 19,000 -783 Level New York TRACON
Wed 02:22:22 PM 40.7500 -74.0333 163° South 339 390 17,500 -1,900 Descending New York TRACON
Wed 02:23:22 PM 40.6500 -74.0000 166° South 344 396 15,200 -1,857 Descending New York TRACON
Wed 02:24:28 PM 40.5667 -73.9500 155° Southeast 335 386 13,600 -1,048 Descending New York TRACON
Wed 02:25:28 PM 40.4833 -73.9167 163° South 320 368 13,000 -750 Descending New York TRACON
Wed 02:26:28 PM 40.4000 -73.8667 155° Southeast 308 354 12,100 -1,350 Descending New York TRACON
Wed 02:27:28 PM 40.3167 -73.8333 163° South 300 345 10,300 -1,500 Descending New York TRACON
Wed 02:28:28 PM 40.2500 -73.8000 159° South 294 338 9,100 -750 Descending New York TRACON
Wed 02:29:28 PM 40.2167 -73.7000 114° Southeast 300 345 8,800 -750 Descending New York TRACON
Wed 02:30:28 PM 40.2833 -73.6500 30° Northeast 250 288 7,600 -900 Descending New York TRACON
Wed 02:31:28 PM 40.3333 -73.6167 27° Northeast 247 284 7,000 -300 Descending New York TRACON
Wed 02:32:28 PM 40.4000 -73.5667 30° Northeast 245 282 7,000  Level New York TRACON
Wed 02:33:28 PM 40.4667 -73.5333 21° North 246 283 7,000 -368 Level New York TRACON
Wed 02:34:22 PM 40.5167 -73.5000 27° Northeast 251 289 6,300 -950 Descending New York TRACON
Wed 02:35:28 PM 40.6000 -73.4667 17° North 242 278 5,100 -1,050 Descending New York TRACON
Wed 02:36:22 PM 40.6500 -73.4333 27° Northeast 236 272 4,200 -700 Descending New York TRACON
Wed 02:37:28 PM 40.7000 -73.4667 333° Northwest 206 237 3,700 -571 Descending New York TRACON
Wed 02:38:28 PM 40.7333 -73.5167 311° West 210 242 3,000 -800 Descending New York TRACON
Wed 02:39:28 PM 40.7667 -73.5833 303° West 190 219 2,100 -900 Descending New York TRACON

Login

Don't have an account? Register now (free) for customized features, flight alerts, and more!